Map

Track Data

SID SEASON NUMBER BASIN SUBBASIN NAME ISO_TIME NATURE LAT LON WMO_WIND WMO_PRES WMO_AGENCY TRACK_TYPE DIST2LAND LANDFALL IFLAG USA_AGENCY USA_ATCF_ID USA_LAT USA_LON USA_RECORD USA_STATUS USA_WIND USA_PRES USA_SSHS USA_R34_NE USA_R34_SE USA_R34_SW USA_R34_NW USA_R50_NE USA_R50_SE USA_R50_SW USA_R50_NW USA_R64_NE USA_R64_SE USA_R64_SW USA_R64_NW USA_POCI USA_ROCI USA_RMW USA_EYE TOKYO_LAT TOKYO_LON TOKYO_GRADE TOKYO_WIND TOKYO_PRES TOKYO_R50_DIR TOKYO_R50_LONG TOKYO_R50_SHORT TOKYO_R30_DIR TOKYO_R30_LONG TOKYO_R30_SHORT TOKYO_LAND CMA_LAT CMA_LON CMA_CAT CMA_WIND CMA_PRES HKO_LAT HKO_LON HKO_CAT HKO_WIND HKO_PRES NEWDELHI_LAT NEWDELHI_LON NEWDELHI_GRADE NEWDELHI_WIND NEWDELHI_PRES NEWDELHI_CI NEWDELHI_DP NEWDELHI_POCI REUNION_LAT REUNION_LON REUNION_TYPE REUNION_WIND REUNION_PRES REUNION_TNUM REUNION_CI REUNION_RMW REUNION_R34_NE REUNION_R34_SE REUNION_R34_SW REUNION_R34_NW REUNION_R50_NE REUNION_R50_SE REUNION_R50_SW REUNION_R50_NW REUNION_R64_NE REUNION_R64_SE REUNION_R64_SW REUNION_R64_NW BOM_LAT BOM_LON BOM_TYPE BOM_WIND BOM_PRES BOM_TNUM BOM_CI BOM_RMW BOM_R34_NE BOM_R34_SE BOM_R34_SW BOM_R34_NW BOM_R50_NE BOM_R50_SE BOM_R50_SW BOM_R50_NW BOM_R64_NE BOM_R64_SE BOM_R64_SW BOM_R64_NW BOM_ROCI BOM_POCI BOM_EYE BOM_POS_METHOD BOM_PRES_METHOD NADI_LAT NADI_LON NADI_CAT NADI_WIND NADI_PRES WELLINGTON_LAT WELLINGTON_LON WELLINGTON_WIND WELLINGTON_PRES DS824_LAT DS824_LON DS824_STAGE DS824_WIND DS824_PRES TD9636_LAT TD9636_LON TD9636_STAGE TD9636_WIND TD9636_PRES TD9635_LAT TD9635_LON TD9635_WIND TD9635_PRES TD9635_ROCI NEUMANN_LAT NEUMANN_LON NEUMANN_CLASS NEUMANN_WIND NEUMANN_PRES MLC_LAT MLC_LON MLC_CLASS MLC_WIND MLC_PRES USA_GUST BOM_GUST BOM_GUST_PER REUNION_GUST REUNION_GUST_PER USA_SEAHGT USA_SEARAD_NE USA_SEARAD_SE USA_SEARAD_SW USA_SEARAD_NW STORM_SPEED STORM_DIR
1878244N09306 1878 16 NA NA NOT_NAMED 1878-09-01 00:00:00 TS 8.56667 -54.3000 50 hurdat_atl main 302 302 O____________O hurdat_atl AL051878 8.50000 -54.2000 TS 50 0 8.70000 -54.5000 TS 50 14 282
1878244N09306 1878 16 NA NA NOT_NAMED 1878-09-01 03:00:00 TS 8.71441 -55.0124 main 313 313 P____________P AL051878 8.59775 -54.8999 TS 50 0 8.94774 -55.2374 TS 50 15 282
1878244N09306 1878 16 NA NA NOT_NAMED 1878-09-01 06:00:00 TS 8.86667 -55.7333 50 hurdat_atl main 336 299 O____________O hurdat_atl AL051878 8.70000 -55.6000 TS 50 0 9.20000 -56.0000 TS 50 15 282
1878244N09306 1878 16 NA NA NOT_NAMED 1878-09-01 09:00:00 TS 9.03239 -56.4668 main 291 239 P____________P AL051878 8.81987 -56.3002 TS 55 0 9.45742 -56.8000 TS 55 15 284
1878244N09306 1878 16 NA NA NOT_NAMED 1878-09-01 12:00:00 TS 9.23333 -57.2000 60 hurdat_atl main 239 204 O____________O hurdat_atl AL051878 9.00000 -57.0000 TS 60 0 9.70000 -57.6000 TS 60 15 287
1878244N09306 1878 16 NA NA NOT_NAMED 1878-09-01 15:00:00 TS 9.47979 -57.9118 main 207 189 P____________P AL051878 9.26982 -57.6926 TS 60 0 9.89973 -58.3502 TS 60 15 291
1878244N09306 1878 16 NA NA NOT_NAMED 1878-09-01 18:00:00 TS 9.76667 -58.6333 60 hurdat_atl main 199 182 O____________O hurdat_atl AL051878 9.60000 -58.4000 TS 60 0 10.1000 -59.1000 TS 60 16 292
1878244N09306 1878 16 NA NA NOT_NAMED 1878-09-01 21:00:00 TS 10.0631 -59.3803 main 175 98 P____________P AL051878 9.91973 -59.1204 TS 65 1 10.3499 -59.9000 TS 65 16 293
1878244N09306 1878 16 NA NA NOT_NAMED 1878-09-02 00:00:00 TS 10.4000 -60.1667 70 hurdat_atl main 87 10 O____________O hurdat_atl AL051878 10.3000 -59.9000 HU 70 1 10.6000 -60.7000 HU 70 18 294
1878244N09306 1878 16 NA NA NOT_NAMED 1878-09-02 03:00:00 TS 10.7775 -61.0168 main 11 11 P____________P AL051878 10.7776 -60.7925 HU 75 1 10.7773 -61.4654 HU 72 19 296
1878244N09306 1878 16 NA CS NOT_NAMED 1878-09-02 06:00:00 TS 11.2000 -61.8667 80 hurdat_atl main 60 60 O____________O hurdat_atl AL051878 11.3000 -61.7000 HU 80 1 11.0000 -62.2000 HU 75 18 299
1878244N09306 1878 16 NA CS NOT_NAMED 1878-09-02 09:00:00 TS 11.6564 -62.6535 main 111 111 P____________P AL051878 11.7997 -62.5228 HU 80 1 11.3698 -62.9150 HU 75 18 302
1878244N09306 1878 16 NA CS NOT_NAMED 1878-09-02 12:00:00 TS 12.1333 -63.4000 80 hurdat_atl main 160 160 O____________O hurdat_atl AL051878 12.3000 -63.3000 HU 80 1 11.8000 -63.6000 HU 75 17 303
1878244N09306 1878 16 NA CS NOT_NAMED 1878-09-02 15:00:00 TS 12.5972 -64.1220 main 223 223 P____________P AL051878 12.7997 -64.0578 HU 80 1 12.1922 -64.2503 HU 75 17 304
1878244N09306 1878 16 NA CS NOT_NAMED 1878-09-02 18:00:00 TS 13.0667 -64.8333 80 hurdat_atl main 287 287 O____________O hurdat_atl AL051878 13.3000 -64.8000 HU 80 1 12.6000 -64.9000 HU 75 17 304
1878244N09306 1878 16 NA CS NOT_NAMED 1878-09-02 21:00:00 TS 13.5548 -65.5644 main 338 337 P____________P AL051878 13.8073 -65.5502 HU 80 1 13.0499 -65.5926 HU 75 17 304
1878244N09306 1878 16 NA CS NOT_NAMED 1878-09-03 00:00:00 TS 14.0333 -66.3000 80 hurdat_atl main 380 380 O____________O hurdat_atl AL051878 14.3000 -66.3000 HU 80 1 13.5000 -66.3000 HU 75 17 303
1878244N09306 1878 16 NA CS NOT_NAMED 1878-09-03 03:00:00 TS 14.4790 -67.0361 main 380 339 P____________P AL051878 14.7648 -67.0503 HU 80 1 13.9074 -67.0078 HU 75 17 301
1878244N09306 1878 16 NA CS NOT_NAMED 1878-09-03 06:00:00 TS 14.9000 -67.7667 80 hurdat_atl main 341 317 O____________O hurdat_atl AL051878 15.2000 -67.8000 HU 80 1 14.3000 -67.7000 HU 75 17 300
1878244N09306 1878 16 NA CS NOT_NAMED 1878-09-03 09:00:00 TS 15.3075 -68.5184 main 322 281 P____________P AL051878 15.6152 -68.6025 HU 80 1 14.6922 -68.3504 HU 75 16 300
1878244N09306 1878 16 NA CS NOT_NAMED 1878-09-03 12:00:00 TS 15.7000 -69.2000 80 hurdat_atl main 282 240 O____________O hurdat_atl AL051878 16.0000 -69.3000 HU 80 1 15.1000 -69.0000 HU 75 14 304
1878244N09306 1878 16 NA CS NOT_NAMED 1878-09-03 15:00:00 TS 16.0829 -69.7254 main 240 185 P____________P AL051878 16.3494 -69.7381 HU 80 1 15.5499 -69.7001 HU 75 12 309
1878244N09306 1878 16 NA CS NOT_NAMED 1878-09-03 18:00:00 TS 16.4667 -70.2000 80 hurdat_atl main 177 116 O____________O hurdat_atl AL051878 16.7000 -70.1000 HU 80 1 16.0000 -70.4000 HU 75 13 309
1878244N09306 1878 16 NA CS NOT_NAMED 1878-09-03 21:00:00 TS 16.8690 -70.7402 main 108 46 P____________P AL051878 17.1000 -70.5850 HU 80 1 16.4072 -71.0504 HU 75 13 307
1878244N09306 1878 16 NA CS NOT_NAMED 1878-09-04 00:00:00 TS 17.2667 -71.3000 80 hurdat_atl main 35 22 O____________O hurdat_atl AL051878 17.5000 -71.1000 HU 80 1 16.8000 -71.7000 HU 75 13 305
1878244N09306 1878 16 NA CS NOT_NAMED 1878-09-04 03:00:00 TS 17.6382 -71.8694 main 38 22 P____________P AL051878 17.8574 -71.6077 HU 75 1 17.1998 -72.3928 HU 75 13 304
1878244N09306 1878 16 NA CS NOT_NAMED 1878-09-04 06:00:00 TS 18.0000 -72.4333 70 hurdat_atl main 22 0 O____________O hurdat_atl AL051878 18.2000 -72.1000 HU 70 1 17.6000 -73.1000 HU 75 13 305
1878244N09306 1878 16 NA NA NOT_NAMED 1878-09-04 09:00:00 TS 18.3767 -72.9967 main 0 0 P____________P AL051878 18.5573 -72.5577 HU 65 1 18.0153 -73.8747 HU 75 13 306
1878244N09306 1878 16 NA CS NOT_NAMED 1878-09-04 12:00:00 TS 18.7333 -73.5000 60 hurdat_atl main 30 30 O____________O hurdat_atl AL051878 18.9000 -73.0000 TS 60 0 18.4000 -74.5000 HU 75 11 308
1878244N09306 1878 16 NA CS NOT_NAMED 1878-09-04 15:00:00 TS 19.0482 -73.8994 main 45 45 P____________P AL051878 19.2150 -73.4651 TS 65 1 18.7145 -74.7681 HU 75 9 311
1878244N09306 1878 16 NA CS NOT_NAMED 1878-09-04 18:00:00 TS 19.3333 -74.2333 70 hurdat_atl main 78 54 O____________O hurdat_atl AL051878 19.5000 -73.9000 HU 70 1 19.0000 -74.9000 HU 75 8 312
1878244N09306 1878 16 NA CS NOT_NAMED 1878-09-04 21:00:00 TS 19.6048 -74.5452 main 54 11 P____________P AL051878 19.7572 -74.2428 HU 70 1 19.3000 -75.1500 HU 75 8 312
1878244N09306 1878 16 NA CS NOT_NAMED 1878-09-05 00:00:00 TS 19.8667 -74.8667 70 hurdat_atl main 10 0 O____________O hurdat_atl AL051878 20.0000 -74.6000 HU 70 1 19.6000 -75.4000 HU 75 9 309
1878244N09306 1878 16 NA NA NOT_NAMED 1878-09-05 03:00:00 TS 20.1383 -75.2468 main 0 0 P____________P AL051878 20.2500 -75.0776 HU 65 1 19.9149 -75.5852 HU 75 9 305
1878244N09306 1878 16 NA NA NOT_NAMED 1878-09-05 06:00:00 TS 20.4000 -75.6667 60 hurdat_atl main 0 0 O____________O hurdat_atl AL051878 20.5000 -75.6000 TS 60 0 20.2000 -75.8000 HU 75 10 301
1878244N09306 1878 16 NA NA NOT_NAMED 1878-09-05 09:00:00 TS 20.6435 -76.1391 main 0 0 P____________P AL051878 20.7501 -76.1375 TS 60 0 20.4301 -76.1424 HU 75 10 299
1878244N09306 1878 16 NA NA NOT_NAMED 1878-09-05 12:00:00 TS 20.8667 -76.5667 60 hurdat_atl main 0 0 O____________O hurdat_atl AL051878 21.0000 -76.6000 TS 60 0 20.6000 -76.5000 HU 75 8 304
1878244N09306 1878 16 NA NA NOT_NAMED 1878-09-05 15:00:00 TS 21.0764 -76.8369 main 0 0 P____________P AL051878 21.2572 -76.8728 TS 60 0 20.7149 -76.7652 HU 72 6 311
1878244N09306 1878 16 NA NA NOT_NAMED 1878-09-05 18:00:00 TS 21.2667 -77.0667 60 hurdat_atl main 0 0 O____________O hurdat_atl AL051878 21.5000 -77.1000 TS 60 0 20.8000 -77.0000 HU 70 6 306
1878244N09306 1878 16 NA NA NOT_NAMED 1878-09-05 21:00:00 TS 21.4459 -77.3783 main 0 0 P____________P AL051878 21.7226 -77.4424 TS 55 0 20.8925 -77.2501 HU 67 7 299
1878244N09306 1878 16 NA NA NOT_NAMED 1878-09-06 00:00:00 TS 21.6000 -77.7000 50 hurdat_atl main 0 0 O____________O hurdat_atl AL051878 21.9000 -77.8000 TS 50 0 21.0000 -77.5000 HU 65 6 296
1878244N09306 1878 16 NA NA NOT_NAMED 1878-09-06 03:00:00 TS 21.7241 -77.9884 main 0 0 P____________P AL051878 22.0149 -78.1077 TS 50 0 21.1425 -77.7500 HU 65 6 294
1878244N09306 1878 16 NA NA NOT_NAMED 1878-09-06 06:00:00 TS 21.8333 -78.2667 50 hurdat_atl main 0 0 O____________O hurdat_atl AL051878 22.1000 -78.4000 TS 50 0 21.3000 -78.0000 HU 65 6 293
1878244N09306 1878 16 NA NA NOT_NAMED 1878-09-06 09:00:00 TS 21.9500 -78.5550 main 0 0 P____________P AL051878 22.2000 -78.7075 TS 50 0 21.4500 -78.2501 HU 65 6 294
1878244N09306 1878 16 NA NA NOT_NAMED 1878-09-06 12:00:00 TS 22.0667 -78.8333 50 hurdat_atl main 0 0 O____________O hurdat_atl AL051878 22.3000 -79.0000 TS 50 0 21.6000 -78.5000 HU 65 5 295
1878244N09306 1878 16 NA NA NOT_NAMED 1878-09-06 15:00:00 TS 22.1783 -79.0884 main 0 0 P____________P AL051878 22.3924 -79.2576 TS 50 0 21.7500 -78.7501 HU 65 5 297
1878244N09306 1878 16 NA NA NOT_NAMED 1878-09-06 18:00:00 TS 22.3000 -79.3333 50 hurdat_atl main 0 0 O____________O hurdat_atl AL051878 22.5000 -79.5000 TS 50 0 21.9000 -79.0000 HU 65 5 300
1878244N09306 1878 16 NA NA NOT_NAMED 1878-09-06 21:00:00 TS 22.4425 -79.5859 main 0 0 P____________P AL051878 22.6425 -79.7500 TS 50 0 22.0425 -79.2576 HU 65 6 303
1878244N09306 1878 16 NA NA NOT_NAMED 1878-09-07 00:00:00 TS 22.6000 -79.8333 50 hurdat_atl main 0 0 O____________O hurdat_atl AL051878 22.8000 -80.0000 TS 50 0 22.2000 -79.5000 HU 65 5 304
1878244N09306 1878 16 NA NA NOT_NAMED 1878-09-07 03:00:00 TS 22.7467 -80.0793 main 0 0 P____________P AL051878 22.9350 -80.2651 TS 50 0 22.3699 -79.7076 HU 65 5 308
1878244N09306 1878 16 NA NA NOT_NAMED 1878-09-07 06:00:00 TS 22.9333 -80.3000 50 hurdat_atl main 0 0 O____________O hurdat_atl AL051878 23.1000 -80.5000 TS 50 0 22.6000 -79.9000 HU 65 6 320
1878244N09306 1878 16 NA NA NOT_NAMED 1878-09-07 09:00:00 TS 23.1866 -80.4842 main 22 22 P____________P AL051878 23.3200 -80.6800 TS 50 0 22.9199 -80.0926 HU 67 6 332
1878244N09306 1878 16 NA NA NOT_NAMED 1878-09-07 12:00:00 TS 23.5000 -80.6333 50 hurdat_atl main 55 55 O____________O hurdat_atl AL051878 23.6000 -80.8000 TS 50 0 23.3000 -80.3000 HU 70 7 339
1878244N09306 1878 16 NA NA NOT_NAMED 1878-09-07 15:00:00 TS 23.8483 -80.7659 main 89 89 P____________P AL051878 23.9261 -80.8739 TS 50 0 23.6925 -80.5500 HU 75 8 344
1878244N09306 1878 16 NA NA NOT_NAMED 1878-09-07 18:00:00 TS 24.2333 -80.8667 50 hurdat_atl main 102 59 O____________O hurdat_atl AL051878 24.3000 -80.9000 TS 50 0 24.1000 -80.8000 HU 80 8 349
1878244N09306 1878 16 NA NA NOT_NAMED 1878-09-07 21:00:00 TS 24.6308 -80.9384 60 hurdat_atl main 59 22 O____________P hurdat_atl AL051878 24.7000 -80.9000 L TS 60 0 24.4925 -81.0152 HU 85 8 346
1878244N09306 1878 16 NA GM NOT_NAMED 1878-09-08 00:00:00 TS 24.9667 -81.0667 60 hurdat_atl main 11 0 O____________O hurdat_atl AL051878 25.0000 -81.0000 TS 60 0 24.9000 -81.2000 HU 90 7 346
1878244N09306 1878 16 NA GM NOT_NAMED 1878-09-08 02:00:00 TS 25.1992 -81.1009 60 hurdat_atl main 0 0 O____________P hurdat_atl AL051878 25.2000 -81.0000 L TS 60 0 25.1975 -81.3027 HU 90 8 349
1878244N09306 1878 16 NA GM NOT_NAMED 1878-09-08 03:00:00 TS 25.3390 -81.1366 main 11 0 P____________P AL051878 25.3335 -81.0298 TS 57 0 25.3499 -81.3502 HU 90 9 343
1878244N09306 1878 16 NA NA NOT_NAMED 1878-09-08 06:00:00 TS 25.8000 -81.3000 50 hurdat_atl main 0 0 O____________O hurdat_atl AL051878 25.8000 -81.2000 TS 50 0 25.8000 -81.5000 HU 90 9 341
1878244N09306 1878 16 NA NA NOT_NAMED 1878-09-08 09:00:00 TS 26.2155 -81.4669 main 0 0 P____________P AL051878 26.1895 -81.3430 TS 45 0 26.2676 -81.7147 HU 87 8 338
1878244N09306 1878 16 NA NA NOT_NAMED 1878-09-08 12:00:00 TS 26.5333 -81.6333 40 hurdat_atl main 0 0 O____________O hurdat_atl AL051878 26.5000 -81.5000 TS 40 0 26.6000 -81.9000 HU 85 6 330
1878244N09306 1878 16 NA GM NOT_NAMED 1878-09-08 15:00:00 TS 26.7041 -81.7835 main 0 0 P____________P AL051878 26.7300 -81.6851 TS 40 0 26.6525 -81.9802 HU 82 4 315
1878244N09306 1878 16 NA NA NOT_NAMED 1878-09-08 18:00:00 TS 26.8000 -81.9333 40 hurdat_atl main 0 0 O____________O hurdat_atl AL051878 26.9000 -81.9000 TS 40 0 26.6000 -82.0000 HU 80 4 309
1878244N09306 1878 16 NA GM NOT_NAMED 1878-09-08 21:00:00 TS 26.9267 -82.0950 main 0 0 P____________P AL051878 27.0650 -82.1425 TS 40 0 26.6500 -82.0000 HU 77 4 308
1878244N09306 1878 16 NA NA NOT_NAMED 1878-09-09 00:00:00 TS 27.0333 -82.2667 40 hurdat_atl main 0 0 O____________O hurdat_atl AL051878 27.2000 -82.4000 TS 40 0 26.7000 -82.0000 HU 75 4 300
1878244N09306 1878 16 NA GM NOT_NAMED 1878-09-09 03:00:00 TS 27.1075 -82.4526 main 9 9 P____________P AL051878 27.3075 -82.6576 TS 45 0 26.7075 -82.0425 HU 72 4 292
1878244N09306 1878 16 NA GM NOT_NAMED 1878-09-09 06:00:00 TS 27.1667 -82.6333 50 hurdat_atl main 9 9 O____________O hurdat_atl AL051878 27.4000 -82.9000 TS 50 0 26.7000 -82.1000 HU 70 3 292
1878244N09306 1878 16 NA GM NOT_NAMED 1878-09-09 09:00:00 TS 27.2333 -82.8008 main 22 19 P____________P AL051878 27.5000 -83.1225 TS 55 0 26.7000 -82.1575 HU 75 3 297
1878244N09306 1878 16 NA GM NOT_NAMED 1878-09-09 12:00:00 TS 27.3000 -82.9333 60 hurdat_atl main 29 29 O____________O hurdat_atl AL051878 27.6000 -83.3000 TS 60 0 26.7000 -82.2000 HU 80 2 304
1878244N09306 1878 16 NA GM NOT_NAMED 1878-09-09 15:00:00 TS 27.3666 -83.0300 main 39 39 P____________P AL051878 27.7000 -83.4375 TS 65 1 26.7000 -82.2150 HU 80 2 319
1878244N09306 1878 16 NA GM NOT_NAMED 1878-09-09 18:00:00 TS 27.4333 -83.0667 70 hurdat_atl main 49 37 O____________O hurdat_atl AL051878 27.8000 -83.5000 HU 70 1 26.7000 -82.2000 HU 80 1 356
1878244N09306 1878 16 NA GM NOT_NAMED 1878-09-09 21:00:00 TS 27.4975 -83.0466 main 37 29 P____________P AL051878 27.8924 -83.4950 HU 75 1 26.7075 -82.1500 HU 80 2 33
1878244N09306 1878 16 NA GM NOT_NAMED 1878-09-10 00:00:00 TS 27.5667 -82.9667 80 hurdat_atl main 29 22 O____________O hurdat_atl AL051878 28.0000 -83.4000 HU 80 1 26.7000 -82.1000 HU 80 2 50
1878244N09306 1878 16 NA GM NOT_NAMED 1878-09-10 03:00:00 TS 27.6418 -82.8524 main 22 0 P____________P AL051878 28.1378 -83.2285 HU 85 2 26.6500 -82.1000 HU 80 3 55
1878244N09306 1878 16 NA NA NOT_NAMED 1878-09-10 06:00:00 TS 27.7333 -82.7000 90 hurdat_atl main 0 0 O____________O hurdat_atl AL051878 28.3000 -83.0000 HU 90 2 26.6000 -82.1000 HU 80 3 57
1878244N09306 1878 16 NA GM NOT_NAMED 1878-09-10 09:00:00 TS 27.8255 -82.5347 main 0 0 P____________P AL051878 28.4494 -82.7770 HU 90 2 26.5775 -82.0500 HU 77 4 53
1878244N09306 1878 16 NA NA NOT_NAMED 1878-09-10 11:00:00 TS 27.9287 -82.4045 90 hurdat_atl main 0 0 O____________P hurdat_atl AL051878 28.6000 -82.6000 L HU 90 2 26.5860 -82.0136 HU 75 5 45
1878244N09306 1878 16 NA NA NOT_NAMED 1878-09-10 12:00:00 TS 28.0000 -82.3333 80 970 hurdat_atl main 0 0 O____________O hurdat_atl AL051878 28.7000 -82.5000 HU 80 970 1 26.6000 -82.0000 HU 75 970 5 39
1878244N09306 1878 16 NA NA NOT_NAMED 1878-09-10 15:00:00 TS 28.2015 -82.1576 main 0 0 P____________P AL051878 28.9634 -82.2363 HU 75 973 1 26.6775 -82.0000 HU 72 973 5 36
1878244N09306 1878 16 NA NA NOT_NAMED 1878-09-10 18:00:00 TS 28.4000 -82.0000 70 hurdat_atl main 0 0 I____________I hurdat_atl AL051878 29.2000 -82.0000 HU 70 977 1 26.8000 -82.0000 HU 70 977 5 36
1878244N09306 1878 16 NA NA NOT_NAMED 1878-09-10 21:00:00 TS 28.6167 -81.8142 main 0 0 P____________P AL051878 29.4575 -81.7425 HU 65 981 1 26.9350 -81.9575 HU 65 981 5 37
1878244N09306 1878 16 NA NA NOT_NAMED 1878-09-11 00:00:00 TS 28.8333 -81.6333 60 985 hurdat_atl main 0 0 O____________O hurdat_atl AL051878 29.7000 -81.5000 TS 60 985 0 27.1000 -81.9000 TS 60 985 5 36
1878244N09306 1878 16 NA NA NOT_NAMED 1878-09-11 03:00:00 TS 29.0358 -81.4658 main 0 0 P____________P AL051878 29.9075 -81.2774 TS 65 1 27.2925 -81.8425 TS 60 5 33
1878244N09306 1878 16 NA NA NOT_NAMED 1878-09-11 06:00:00 TS 29.2333 -81.3333 70 hurdat_atl main 0 0 O____________O hurdat_atl AL051878 30.1000 -81.1000 HU 70 1 27.5000 -81.8000 TS 60 4 25
1878244N09306 1878 16 NA NA NOT_NAMED 1878-09-11 09:00:00 TS 29.4158 -81.2615 main 0 0 P____________P AL051878 30.2999 -80.9849 HU 75 1 27.6475 -81.8147 TS 60 4 16
1878244N09306 1878 16 NA NA NOT_NAMED 1878-09-11 12:00:00 TS 29.6333 -81.2000 80 hurdat_atl main 0 0 O____________O hurdat_atl AL051878 30.5000 -80.9000 HU 80 1 27.9000 -81.8000 TS 60 5 16
1878244N09306 1878 16 NA NA NOT_NAMED 1878-09-11 15:00:00 TS 29.9350 -81.0859 main 22 22 P____________P AL051878 30.7000 -80.7925 HU 80 1 28.4050 -81.6728 TS 60 7 18
1878244N09306 1878 16 NA NA NOT_NAMED 1878-09-11 18:00:00 TS 30.2667 -80.9667 80 hurdat_atl main 44 44 O____________O hurdat_atl AL051878 30.9000 -80.7000 HU 80 1 29.0000 -81.5000 TS 60 7 16
1878244N09306 1878 16 NA NA NOT_NAMED 1878-09-11 21:00:00 TS 30.5742 -80.8733 main 49 47 P____________P AL051878 31.0925 -80.6424 HU 80 1 29.5375 -81.3351 TS 57 6 13
1878244N09306 1878 16 NA NA NOT_NAMED 1878-09-12 00:00:00 TS 30.8667 -80.8000 80 hurdat_atl main 57 52 O____________O hurdat_atl AL051878 31.3000 -80.6000 HU 80 1 30.0000 -81.2000 TS 55 6 12
1878244N09306 1878 16 NA NA NOT_NAMED 1878-09-12 03:00:00 TS 31.1108 -80.7424 main 61 52 P____________P AL051878 31.5275 -80.5500 HU 80 1 30.2775 -81.1273 TS 55 5 10
1878244N09306 1878 16 NA NA NOT_NAMED 1878-09-12 06:00:00 TS 31.4000 -80.7000 80 hurdat_atl main 52 29 O____________O hurdat_atl AL051878 31.8000 -80.5000 HU 80 1 30.6000 -81.1000 TS 55 7 3
1878244N09306 1878 16 NA NA NOT_NAMED 1878-09-12 09:00:00 TS 31.7600 -80.6884 main 21 0 P____________P AL051878 32.0750 -80.4646 HU 80 1 31.1300 -81.1359 TS 55 9 3
1878244N09306 1878 16 NA NA NOT_NAMED 1878-09-12 12:00:00 TS 32.3000 -80.6333 80 hurdat_atl main 0 0 O____________O hurdat_atl AL051878 32.5000 -80.4000 L HU 80 1 31.9000 -81.1000 TS 55 13 9
1878244N09306 1878 16 NA NA NOT_NAMED 1878-09-12 15:00:00 TS 33.0468 -80.4585 main 0 0 P____________P AL051878 33.1151 -80.2648 HU 70 1 32.9103 -80.8458 TS 47 18 11
1878244N09306 1878 16 NA NA NOT_NAMED 1878-09-12 18:00:00 TS 34.0333 -80.2333 60 hurdat_atl main 0 0 O____________O hurdat_atl AL051878 34.0000 -80.1000 TS 60 0 34.1000 -80.5000 TS 40 22 9
1878244N09306 1878 16 NA NA NOT_NAMED 1878-09-12 21:00:00 TS 35.2309 -80.0379 main 0 0 P____________P AL051878 35.1751 -79.9571 TS 55 0 35.3424 -80.1995 TS 40 25 7
1878244N09306 1878 16 NA NA NOT_NAMED 1878-09-13 00:00:00 TS 36.5333 -79.8333 50 hurdat_atl main 0 0 O____________O hurdat_atl AL051878 36.5000 -79.8000 TS 50 0 36.6000 -79.9000 TS 40 25 8
1878244N09306 1878 16 NA NA NOT_NAMED 1878-09-13 03:00:00 TS 37.7150 -79.6062 main 0 0 P____________P AL051878 37.7500 -79.6072 TS 50 0 37.6451 -79.6043 TS 37 25 9
1878244N09306 1878 16 NA NA NOT_NAMED 1878-09-13 06:00:00 MX 38.9667 -79.3667 50 hurdat_atl main 0 0 O____________O hurdat_atl AL051878 39.0000 -79.4000 EX 50 -4 38.9000 -79.3000 TS 35 27 8
1878244N09306 1878 16 NA NA NOT_NAMED 1878-09-13 09:00:00 MX 40.3899 -79.1431 main 0 0 P____________P AL051878 40.2499 -79.2063 EX 45 -4 40.6700 -79.0167 TS 35 30 7
1878244N09306 1878 16 NA NA NOT_NAMED 1878-09-13 12:00:00 MX 41.9333 -78.8667 40 hurdat_atl main 0 0 O____________O hurdat_atl AL051878 41.5000 -79.0000 EX 40 -4 42.8000 -78.6000 TS 35 32 9
1878244N09306 1878 16 NA NA NOT_NAMED 1878-09-13 15:00:00 MX 43.5372 -78.4777 main 0 0 P____________P AL051878 42.7501 -78.7624 EX 40 -4 45.1113 -77.9083 TS 35 33 11
1878244N09306 1878 16 NA NA NOT_NAMED 1878-09-13 18:00:00 ET 45.1667 -78.0000 40 hurdat_atl main 0 O____________O hurdat_atl AL051878 44.0000 -78.5000 EX 40 -4 47.5000 -77.0000 EX 35 33 12

About IBTrACS Database

This database is a web-friendly format of International Best Track Archive for Climate Stewardship (IBTrACS), a global best track data archive curated by NOAA dating back to 1842.

Updated: 2021-12-01